sensor_id;sensor_type;location;lat;lon;timestamp;pressure;altitude;pressure_sealevel;temperature;humidity
63033;BME280;49121;38.932;-9.018;2023-02-12T00:01:31;111992.50;;;-145.11;51.24
63033;BME280;49121;38.932;-9.018;2023-02-12T00:03:31;111992.50;;;-145.11;51.14
63033;BME280;49121;38.932;-9.018;2023-02-12T00:05:32;111992.50;;;-145.11;51.38
63033;BME280;49121;38.932;-9.018;2023-02-12T00:07:32;111992.50;;;-145.11;51.41
63033;BME280;49121;38.932;-9.018;2023-02-12T00:09:33;111992.50;;;-145.11;51.51
63033;BME280;49121;38.932;-9.018;2023-02-12T00:11:34;111992.50;;;-145.11;51.53
63033;BME280;49121;38.932;-9.018;2023-02-12T00:13:35;111992.50;;;-145.11;51.75
63033;BME280;49121;38.932;-9.018;2023-02-12T00:15:41;111992.50;;;-145.11;51.58
63033;BME280;49121;38.932;-9.018;2023-02-12T00:17:42;111992.50;;;-145.11;51.92
63033;BME280;49121;38.932;-9.018;2023-02-12T00:19:43;111992.50;;;-145.11;52.15
63033;BME280;49121;38.932;-9.018;2023-02-12T00:24:21;111992.50;;;-145.11;52.33
63033;BME280;49121;38.932;-9.018;2023-02-12T00:26:40;111992.50;;;-145.11;52.45
63033;BME280;49121;38.932;-9.018;2023-02-12T00:28:41;111992.50;;;-145.11;52.63
63033;BME280;49121;38.932;-9.018;2023-02-12T00:30:42;111992.50;;;-145.11;52.60
63033;BME280;49121;38.932;-9.018;2023-02-12T00:32:44;111992.50;;;-145.11;52.61
63033;BME280;49121;38.932;-9.018;2023-02-12T00:34:45;111992.50;;;-145.11;52.95
63033;BME280;49121;38.932;-9.018;2023-02-12T00:36:46;111992.50;;;-145.11;53.04
63033;BME280;49121;38.932;-9.018;2023-02-12T00:38:56;111992.50;;;-145.11;52.91
63033;BME280;49121;38.932;-9.018;2023-02-12T00:40:58;111992.50;;;-145.11;53.25
63033;BME280;49121;38.932;-9.018;2023-02-12T00:42:59;111992.50;;;-145.11;53.14
63033;BME280;49121;38.932;-9.018;2023-02-12T00:44:59;111992.50;;;-145.11;53.44
63033;BME280;49121;38.932;-9.018;2023-02-12T00:47:00;111992.50;;;-145.11;53.53
63033;BME280;49121;38.932;-9.018;2023-02-12T00:49:03;111992.50;;;-145.11;53.27
63033;BME280;49121;38.932;-9.018;2023-02-12T00:51:04;111992.50;;;-145.11;53.32
63033;BME280;49121;38.932;-9.018;2023-02-12T00:53:06;111992.50;;;-145.11;53.60
63033;BME280;49121;38.932;-9.018;2023-02-12T00:55:25;111992.50;;;-145.11;53.33
63033;BME280;49121;38.932;-9.018;2023-02-12T00:57:26;111992.50;;;-145.11;53.69
63033;BME280;49121;38.932;-9.018;2023-02-12T00:59:26;111992.50;;;-145.11;53.75
63033;BME280;49121;38.932;-9.018;2023-02-12T01:01:28;111992.50;;;-145.11;53.82
63033;BME280;49121;38.932;-9.018;2023-02-12T01:03:29;111992.50;;;-145.11;53.35
63033;BME280;49121;38.932;-9.018;2023-02-12T01:05:49;111992.50;;;-145.11;53.59
63033;BME280;49121;38.932;-9.018;2023-02-12T01:07:54;111992.50;;;-145.11;53.43
63033;BME280;49121;38.932;-9.018;2023-02-12T01:09:55;111992.50;;;-145.11;53.39
63033;BME280;49121;38.932;-9.018;2023-02-12T01:11:56;111992.50;;;-145.11;53.45
63033;BME280;49121;38.932;-9.018;2023-02-12T01:13:57;111992.50;;;-145.11;53.59
63033;BME280;49121;38.932;-9.018;2023-02-12T01:18:11;111992.50;;;-145.11;53.59
63033;BME280;49121;38.932;-9.018;2023-02-12T01:20:15;111992.50;;;-145.11;53.64
63033;BME280;49121;38.932;-9.018;2023-02-12T01:24:37;111992.50;;;-145.11;53.61
63033;BME280;49121;38.932;-9.018;2023-02-12T01:26:56;111992.50;;;-145.11;53.72
63033;BME280;49121;38.932;-9.018;2023-02-12T01:29:15;111992.50;;;-145.11;54.19
63033;BME280;49121;38.932;-9.018;2023-02-12T01:31:20;111992.50;;;-145.11;54.03
63033;BME280;49121;38.932;-9.018;2023-02-12T01:33:26;111992.50;;;-145.11;53.99
63033;BME280;49121;38.932;-9.018;2023-02-12T01:35:28;111992.50;;;-145.11;54.14
63033;BME280;49121;38.932;-9.018;2023-02-12T01:37:29;111992.50;;;-145.11;54.09
63033;BME280;49121;38.932;-9.018;2023-02-12T01:39:29;111992.50;;;-145.11;54.09
63033;BME280;49121;38.932;-9.018;2023-02-12T01:41:34;111992.50;;;-145.11;54.02
63033;BME280;49121;38.932;-9.018;2023-02-12T01:43:36;111992.50;;;-145.11;54.15
63033;BME280;49121;38.932;-9.018;2023-02-12T01:45:47;111992.50;;;-145.11;54.35
63033;BME280;49121;38.932;-9.018;2023-02-12T01:47:49;111992.50;;;-145.11;54.38
63033;BME280;49121;38.932;-9.018;2023-02-12T01:50:17;111992.50;;;-145.11;54.58
63033;BME280;49121;38.932;-9.018;2023-02-12T01:52:23;111992.50;;;-145.11;54.33
63033;BME280;49121;38.932;-9.018;2023-02-12T01:54:27;111992.50;;;-145.11;54.27
63033;BME280;49121;38.932;-9.018;2023-02-12T01:56:28;111992.50;;;-145.11;54.52
63033;BME280;49121;38.932;-9.018;2023-02-12T01:58:39;111992.50;;;-145.11;54.39
63033;BME280;49121;38.932;-9.018;2023-02-12T02:00:44;111992.50;;;-145.11;54.42
63033;BME280;49121;38.932;-9.018;2023-02-12T02:02:50;111992.50;;;-145.11;54.24
63033;BME280;49121;38.932;-9.018;2023-02-12T02:05:01;111992.50;;;-145.11;54.52
63033;BME280;49121;38.932;-9.018;2023-02-12T02:07:04;111992.50;;;-145.11;54.54
63033;BME280;49121;38.932;-9.018;2023-02-12T02:09:25;111992.50;;;-145.11;54.52
63033;BME280;49121;38.932;-9.018;2023-02-12T02:11:45;111992.50;;;-145.11;54.86
63033;BME280;49121;38.932;-9.018;2023-02-12T02:14:23;111992.50;;;-145.11;54.82
63033;BME280;49121;38.932;-9.018;2023-02-12T02:16:36;111992.50;;;-145.11;54.91
63033;BME280;49121;38.932;-9.018;2023-02-12T02:18:50;111992.50;;;-145.11;55.39
63033;BME280;49121;38.932;-9.018;2023-02-12T02:28:22;111992.50;;;-145.11;55.50
63033;BME280;49121;38.932;-9.018;2023-02-12T02:35:48;111992.50;;;-145.11;56.10
63033;BME280;49121;38.932;-9.018;2023-02-12T02:38:39;111992.50;;;-145.11;56.13
63033;BME280;49121;38.932;-9.018;2023-02-12T02:41:06;111992.50;;;-145.11;56.30
63033;BME280;49121;38.932;-9.018;2023-02-12T02:43:15;111992.50;;;-145.11;56.67
63033;BME280;49121;38.932;-9.018;2023-02-12T02:45:42;111992.50;;;-145.11;56.81
63033;BME280;49121;38.932;-9.018;2023-02-12T02:50:18;111992.50;;;-145.11;56.83
63033;BME280;49121;38.932;-9.018;2023-02-12T02:52:27;111992.50;;;-145.11;56.92
63033;BME280;49121;38.932;-9.018;2023-02-12T02:54:43;111992.50;;;-145.11;56.79
63033;BME280;49121;38.932;-9.018;2023-02-12T02:56:47;111992.50;;;-145.11;57.06
63033;BME280;49121;38.932;-9.018;2023-02-12T02:59:03;111992.50;;;-145.11;57.23
63033;BME280;49121;38.932;-9.018;2023-02-12T03:03:12;111992.50;;;-145.11;57.71
63033;BME280;49121;38.932;-9.018;2023-02-12T03:05:39;111992.50;;;-145.11;57.71
63033;BME280;49121;38.932;-9.018;2023-02-12T03:07:46;111992.50;;;-145.11;57.20
63033;BME280;49121;38.932;-9.018;2023-02-12T03:09:59;111992.50;;;-145.11;57.57
63033;BME280;49121;38.932;-9.018;2023-02-12T03:12:27;111992.50;;;-145.11;57.62
63033;BME280;49121;38.932;-9.018;2023-02-12T03:14:32;111992.50;;;-145.11;57.89
63033;BME280;49121;38.932;-9.018;2023-02-12T03:16:40;111992.50;;;-145.11;58.14
63033;BME280;49121;38.932;-9.018;2023-02-12T03:19:05;111992.50;;;-145.11;57.96
63033;BME280;49121;38.932;-9.018;2023-02-12T03:21:14;111992.50;;;-145.11;58.04
63033;BME280;49121;38.932;-9.018;2023-02-12T03:23:25;111992.50;;;-145.11;58.30
63033;BME280;49121;38.932;-9.018;2023-02-12T03:25:35;111992.50;;;-145.11;58.12
63033;BME280;49121;38.932;-9.018;2023-02-12T03:27:48;111992.50;;;-145.11;58.00
63033;BME280;49121;38.932;-9.018;2023-02-12T03:29:51;111992.50;;;-145.11;57.33
63033;BME280;49121;38.932;-9.018;2023-02-12T03:31:57;111992.50;;;-145.11;56.70
63033;BME280;49121;38.932;-9.018;2023-02-12T03:34:16;111992.50;;;-145.11;56.61
63033;BME280;49121;38.932;-9.018;2023-02-12T03:38:39;111992.50;;;-145.11;55.94
63033;BME280;49121;38.932;-9.018;2023-02-12T03:41:02;111992.50;;;-145.11;56.17
63033;BME280;49121;38.932;-9.018;2023-02-12T03:43:28;111992.50;;;-145.11;55.91
63033;BME280;49121;38.932;-9.018;2023-02-12T03:52:49;111992.50;;;-145.11;55.10
63033;BME280;49121;38.932;-9.018;2023-02-12T03:54:50;111992.50;;;-145.11;55.23
63033;BME280;49121;38.932;-9.018;2023-02-12T04:02:11;111992.50;;;-145.11;55.26
63033;BME280;49121;38.932;-9.018;2023-02-12T04:04:12;111992.50;;;-145.11;55.14
63033;BME280;49121;38.932;-9.018;2023-02-12T04:06:21;111992.50;;;-145.11;54.97
63033;BME280;49121;38.932;-9.018;2023-02-12T04:08:27;111992.50;;;-145.11;54.91
63033;BME280;49121;38.932;-9.018;2023-02-12T04:11:28;111992.50;;;-145.11;54.88
63033;BME280;49121;38.932;-9.018;2023-02-12T04:18:44;111992.50;;;-145.11;54.92
63033;BME280;49121;38.932;-9.018;2023-02-12T04:30:33;111992.50;;;-145.11;54.76
63033;BME280;49121;38.932;-9.018;2023-02-12T04:32:49;111992.50;;;-145.11;55.12
63033;BME280;49121;38.932;-9.018;2023-02-12T04:34:57;111992.50;;;-145.11;55.23
63033;BME280;49121;38.932;-9.018;2023-02-12T04:37:06;111992.50;;;-145.11;55.35
63033;BME280;49121;38.932;-9.018;2023-02-12T04:39:35;111992.50;;;-145.11;55.07
63033;BME280;49121;38.932;-9.018;2023-02-12T04:41:37;111992.50;;;-145.11;54.94
63033;BME280;49121;38.932;-9.018;2023-02-12T04:43:38;111992.50;;;-145.11;55.06
63033;BME280;49121;38.932;-9.018;2023-02-12T04:45:39;111992.50;;;-145.11;55.11
63033;BME280;49121;38.932;-9.018;2023-02-12T04:47:40;111992.50;;;-145.11;55.08
63033;BME280;49121;38.932;-9.018;2023-02-12T04:49:41;111992.50;;;-145.11;54.79
63033;BME280;49121;38.932;-9.018;2023-02-12T04:51:42;111992.50;;;-145.11;55.18
63033;BME280;49121;38.932;-9.018;2023-02-12T04:53:43;111992.50;;;-145.11;55.18
63033;BME280;49121;38.932;-9.018;2023-02-12T04:55:44;111992.50;;;-145.11;55.38
63033;BME280;49121;38.932;-9.018;2023-02-12T04:57:49;111992.50;;;-145.11;55.85
63033;BME280;49121;38.932;-9.018;2023-02-12T04:59:49;111992.50;;;-145.11;55.72
63033;BME280;49121;38.932;-9.018;2023-02-12T05:01:50;111992.50;;;-145.11;55.92
63033;BME280;49121;38.932;-9.018;2023-02-12T05:03:51;111992.50;;;-145.11;55.83
63033;BME280;49121;38.932;-9.018;2023-02-12T05:05:52;111992.50;;;-145.11;55.91
63033;BME280;49121;38.932;-9.018;2023-02-12T05:07:52;111992.50;;;-145.11;56.22
63033;BME280;49121;38.932;-9.018;2023-02-12T05:09:53;111992.50;;;-145.11;56.30
63033;BME280;49121;38.932;-9.018;2023-02-12T05:11:54;111992.50;;;-145.11;56.15
63033;BME280;49121;38.932;-9.018;2023-02-12T05:13:54;111992.50;;;-145.11;56.09
63033;BME280;49121;38.932;-9.018;2023-02-12T05:15:55;111992.50;;;-145.11;55.74
63033;BME280;49121;38.932;-9.018;2023-02-12T05:17:55;111992.50;;;-145.11;55.79
63033;BME280;49121;38.932;-9.018;2023-02-12T05:19:56;111992.50;;;-145.11;55.35
63033;BME280;49121;38.932;-9.018;2023-02-12T05:21:57;111992.50;;;-145.11;55.05
63033;BME280;49121;38.932;-9.018;2023-02-12T05:23:57;111992.50;;;-145.11;54.80
63033;BME280;49121;38.932;-9.018;2023-02-12T05:25:59;111992.50;;;-145.11;54.74
63033;BME280;49121;38.932;-9.018;2023-02-12T05:28:00;111992.50;;;-145.11;55.06
63033;BME280;49121;38.932;-9.018;2023-02-12T05:30:01;111992.50;;;-145.11;55.19
63033;BME280;49121;38.932;-9.018;2023-02-12T05:34:20;111992.50;;;-145.11;55.64
63033;BME280;49121;38.932;-9.018;2023-02-12T05:36:23;111992.50;;;-145.11;55.96
63033;BME280;49121;38.932;-9.018;2023-02-12T05:38:24;111992.50;;;-145.11;56.51
63033;BME280;49121;38.932;-9.018;2023-02-12T05:40:27;111992.50;;;-145.11;56.23
63033;BME280;49121;38.932;-9.018;2023-02-12T05:42:28;111992.50;;;-145.11;56.62
63033;BME280;49121;38.932;-9.018;2023-02-12T05:44:29;111992.50;;;-145.11;57.18
63033;BME280;49121;38.932;-9.018;2023-02-12T05:46:30;111992.50;;;-145.11;57.05
63033;BME280;49121;38.932;-9.018;2023-02-12T05:48:32;111992.50;;;-145.11;57.25
63033;BME280;49121;38.932;-9.018;2023-02-12T05:50:33;111992.50;;;-145.11;57.24
63033;BME280;49121;38.932;-9.018;2023-02-12T05:52:33;111992.50;;;-145.11;57.25
63033;BME280;49121;38.932;-9.018;2023-02-12T05:54:34;111992.50;;;-145.11;57.09
63033;BME280;49121;38.932;-9.018;2023-02-12T05:56:36;111992.50;;;-145.11;57.31
63033;BME280;49121;38.932;-9.018;2023-02-12T05:58:54;111992.50;;;-145.11;57.76
63033;BME280;49121;38.932;-9.018;2023-02-12T06:00:55;111992.50;;;-145.11;57.54
63033;BME280;49121;38.932;-9.018;2023-02-12T06:02:56;111992.50;;;-145.11;57.94
63033;BME280;49121;38.932;-9.018;2023-02-12T06:05:15;111992.50;;;-145.11;57.90
63033;BME280;49121;38.932;-9.018;2023-02-12T06:07:16;111992.50;;;-145.11;57.63
63033;BME280;49121;38.932;-9.018;2023-02-12T06:09:16;111992.50;;;-145.11;57.20
63033;BME280;49121;38.932;-9.018;2023-02-12T06:11:17;111992.50;;;-145.11;57.03
63033;BME280;49121;38.932;-9.018;2023-02-12T06:13:18;111992.50;;;-145.11;57.17
63033;BME280;49121;38.932;-9.018;2023-02-12T06:15:19;111992.50;;;-145.11;57.00
63033;BME280;49121;38.932;-9.018;2023-02-12T06:17:20;111992.50;;;-145.11;56.95
63033;BME280;49121;38.932;-9.018;2023-02-12T06:19:20;111992.50;;;-145.11;57.24
63033;BME280;49121;38.932;-9.018;2023-02-12T06:21:22;111992.50;;;-145.11;57.11
63033;BME280;49121;38.932;-9.018;2023-02-12T06:26:02;111992.50;;;-145.11;57.74
63033;BME280;49121;38.932;-9.018;2023-02-12T06:28:02;111992.50;;;-145.11;57.92
63033;BME280;49121;38.932;-9.018;2023-02-12T06:30:03;111992.50;;;-145.11;57.32
63033;BME280;49121;38.932;-9.018;2023-02-12T06:32:04;111992.50;;;-145.11;57.09
63033;BME280;49121;38.932;-9.018;2023-02-12T06:34:09;111992.50;;;-145.11;56.86
63033;BME280;49121;38.932;-9.018;2023-02-12T06:36:10;111992.50;;;-145.11;56.61
63033;BME280;49121;38.932;-9.018;2023-02-12T06:38:11;111992.50;;;-145.11;56.30
63033;BME280;49121;38.932;-9.018;2023-02-12T06:40:31;111992.50;;;-145.11;56.47
63033;BME280;49121;38.932;-9.018;2023-02-12T06:42:31;111992.50;;;-145.11;56.44
63033;BME280;49121;38.932;-9.018;2023-02-12T06:44:32;111992.50;;;-145.11;56.62
63033;BME280;49121;38.932;-9.018;2023-02-12T06:46:33;111992.50;;;-145.11;57.08
63033;BME280;49121;38.932;-9.018;2023-02-12T06:48:34;111992.50;;;-145.11;57.90
63033;BME280;49121;38.932;-9.018;2023-02-12T06:50:35;111992.50;;;-145.11;58.36
63033;BME280;49121;38.932;-9.018;2023-02-12T06:52:35;111992.50;;;-145.11;59.40
63033;BME280;49121;38.932;-9.018;2023-02-12T06:54:36;111992.50;;;-145.11;58.99
63033;BME280;49121;38.932;-9.018;2023-02-12T06:56:37;111992.50;;;-145.11;59.28
63033;BME280;49121;38.932;-9.018;2023-02-12T06:58:39;111992.50;;;-145.11;59.45
63033;BME280;49121;38.932;-9.018;2023-02-12T07:00:40;111992.50;;;-145.11;59.64
63033;BME280;49121;38.932;-9.018;2023-02-12T07:02:41;111992.50;;;-145.11;59.79
63033;BME280;49121;38.932;-9.018;2023-02-12T07:09:57;111992.50;;;-145.11;60.45
63033;BME280;49121;38.932;-9.018;2023-02-12T07:11:58;111992.50;;;-145.11;60.87
63033;BME280;49121;38.932;-9.018;2023-02-12T07:13:59;111992.50;;;-145.11;61.26
63033;BME280;49121;38.932;-9.018;2023-02-12T07:16:10;111992.50;;;-145.11;61.73
63033;BME280;49121;38.932;-9.018;2023-02-12T07:18:11;111992.50;;;-145.11;61.21
63033;BME280;49121;38.932;-9.018;2023-02-12T07:20:12;111992.50;;;-145.11;61.03
63033;BME280;49121;38.932;-9.018;2023-02-12T07:22:13;111992.50;;;-145.11;60.51
63033;BME280;49121;38.932;-9.018;2023-02-12T07:24:17;111992.50;;;-145.11;60.31
63033;BME280;49121;38.932;-9.018;2023-02-12T07:26:19;111992.50;;;-145.11;59.72
63033;BME280;49121;38.932;-9.018;2023-02-12T07:28:20;111992.50;;;-145.11;59.39
63033;BME280;49121;38.932;-9.018;2023-02-12T07:30:20;111992.50;;;-145.11;57.93
63033;BME280;49121;38.932;-9.018;2023-02-12T07:32:21;111992.50;;;-145.11;57.90
63033;BME280;49121;38.932;-9.018;2023-02-12T07:34:22;111992.50;;;-145.11;57.35
63033;BME280;49121;38.932;-9.018;2023-02-12T07:36:24;111992.50;;;-145.11;57.28
63033;BME280;49121;38.932;-9.018;2023-02-12T07:38:28;111992.50;;;-145.11;55.94
63033;BME280;49121;38.932;-9.018;2023-02-12T07:40:29;111992.50;;;-145.11;55.50
63033;BME280;49121;38.932;-9.018;2023-02-12T07:42:30;111992.50;;;-145.11;55.44
63033;BME280;49121;38.932;-9.018;2023-02-12T07:44:31;111992.50;;;-145.11;55.05
63033;BME280;49121;38.932;-9.018;2023-02-12T07:46:42;111992.50;;;-145.11;54.44
63033;BME280;49121;38.932;-9.018;2023-02-12T07:48:44;111992.50;;;-145.11;54.63
63033;BME280;49121;38.932;-9.018;2023-02-12T07:50:44;111992.50;;;-145.11;54.04
63033;BME280;49121;38.932;-9.018;2023-02-12T07:53:04;111992.50;;;-145.11;53.65
63033;BME280;49121;38.932;-9.018;2023-02-12T07:55:05;111992.50;;;-145.11;53.92
63033;BME280;49121;38.932;-9.018;2023-02-12T07:57:06;111992.50;;;-145.11;53.79
63033;BME280;49121;38.932;-9.018;2023-02-12T07:59:09;111992.50;;;-145.11;53.70
63033;BME280;49121;38.932;-9.018;2023-02-12T08:01:32;111992.50;;;-145.11;53.64
63033;BME280;49121;38.932;-9.018;2023-02-12T08:03:33;111992.50;;;-145.11;53.76
63033;BME280;49121;38.932;-9.018;2023-02-12T08:05:34;111992.50;;;-145.11;53.64
63033;BME280;49121;38.932;-9.018;2023-02-12T08:07:34;111992.50;;;-145.11;53.49
63033;BME280;49121;38.932;-9.018;2023-02-12T08:09:38;111992.50;;;-145.11;53.48
63033;BME280;49121;38.932;-9.018;2023-02-12T08:11:40;111992.50;;;-145.11;53.24
63033;BME280;49121;38.932;-9.018;2023-02-12T08:13:41;111992.50;;;-145.11;52.73
63033;BME280;49121;38.932;-9.018;2023-02-12T08:15:42;111992.50;;;-145.11;52.94
63033;BME280;49121;38.932;-9.018;2023-02-12T08:17:42;111992.50;;;-145.11;53.08
63033;BME280;49121;38.932;-9.018;2023-02-12T08:19:43;111992.50;;;-145.11;53.00
63033;BME280;49121;38.932;-9.018;2023-02-12T08:22:02;111992.50;;;-145.11;53.31
63033;BME280;49121;38.932;-9.018;2023-02-12T08:24:03;111992.50;;;-145.11;53.19
63033;BME280;49121;38.932;-9.018;2023-02-12T08:28:26;111992.50;;;-145.11;53.61
63033;BME280;49121;38.932;-9.018;2023-02-12T08:30:45;111992.50;;;-145.11;52.86
63033;BME280;49121;38.932;-9.018;2023-02-12T08:32:48;111992.50;;;-145.11;53.12
63033;BME280;49121;38.932;-9.018;2023-02-12T08:34:48;111992.50;;;-145.11;53.34
63033;BME280;49121;38.932;-9.018;2023-02-12T08:36:50;111992.50;;;-145.11;52.65
63033;BME280;49121;38.932;-9.018;2023-02-12T08:38:53;111992.50;;;-145.11;52.91
63033;BME280;49121;38.932;-9.018;2023-02-12T08:43:19;111992.50;;;-145.11;53.25
63033;BME280;49121;38.932;-9.018;2023-02-12T08:45:20;111992.50;;;-145.11;52.87
63033;BME280;49121;38.932;-9.018;2023-02-12T08:47:21;111992.50;;;-145.11;53.38
63033;BME280;49121;38.932;-9.018;2023-02-12T08:49:27;111992.50;;;-145.11;53.12
63033;BME280;49121;38.932;-9.018;2023-02-12T08:59:27;111992.50;;;-145.11;53.08
63033;BME280;49121;38.932;-9.018;2023-02-12T09:01:49;111992.50;;;-145.11;52.40
63033;BME280;49121;38.932;-9.018;2023-02-12T09:03:50;111992.50;;;-145.11;52.87
63033;BME280;49121;38.932;-9.018;2023-02-12T09:05:51;111992.50;;;-145.11;53.13
63033;BME280;49121;38.932;-9.018;2023-02-12T09:07:52;111992.50;;;-145.11;53.14
63033;BME280;49121;38.932;-9.018;2023-02-12T09:09:53;111992.50;;;-145.11;53.45
63033;BME280;49121;38.932;-9.018;2023-02-12T09:11:53;111992.50;;;-145.11;53.45
63033;BME280;49121;38.932;-9.018;2023-02-12T09:13:54;111992.50;;;-145.11;54.35
63033;BME280;49121;38.932;-9.018;2023-02-12T09:15:55;111992.50;;;-145.11;54.41
63033;BME280;49121;38.932;-9.018;2023-02-12T09:17:56;111992.50;;;-145.11;54.37
63033;BME280;49121;38.932;-9.018;2023-02-12T09:19:57;111992.50;;;-145.11;54.35
63033;BME280;49121;38.932;-9.018;2023-02-12T09:21:57;111992.50;;;-145.11;54.53
63033;BME280;49121;38.932;-9.018;2023-02-12T09:24:00;111992.50;;;-145.11;54.55
63033;BME280;49121;38.932;-9.018;2023-02-12T09:26:05;111992.50;;;-145.11;53.92
63033;BME280;49121;38.932;-9.018;2023-02-12T09:28:06;111992.50;;;-145.11;54.01
63033;BME280;49121;38.932;-9.018;2023-02-12T09:30:26;111992.50;;;-145.11;53.88
63033;BME280;49121;38.932;-9.018;2023-02-12T09:32:27;111992.50;;;-145.11;54.08
63033;BME280;49121;38.932;-9.018;2023-02-12T09:34:27;111992.50;;;-145.11;54.27
63033;BME280;49121;38.932;-9.018;2023-02-12T09:36:28;111992.50;;;-145.11;54.13
63033;BME280;49121;38.932;-9.018;2023-02-12T09:38:29;111992.50;;;-145.11;53.74
63033;BME280;49121;38.932;-9.018;2023-02-12T09:51:44;111992.50;;;-145.11;52.59
63033;BME280;49121;38.932;-9.018;2023-02-12T09:53:47;111992.50;;;-145.11;52.15
63033;BME280;49121;38.932;-9.018;2023-02-12T09:55:49;111992.50;;;-145.11;51.95
63033;BME280;49121;38.932;-9.018;2023-02-12T09:57:49;111992.50;;;-145.11;51.68
63033;BME280;49121;38.932;-9.018;2023-02-12T09:59:51;111992.50;;;-145.11;51.74
63033;BME280;49121;38.932;-9.018;2023-02-12T10:01:53;111992.50;;;-145.11;50.62
63033;BME280;49121;38.932;-9.018;2023-02-12T10:07:22;111992.50;;;-145.11;51.27
63033;BME280;49121;38.932;-9.018;2023-02-12T10:19:54;111992.50;;;-145.11;51.29
63033;BME280;49121;38.932;-9.018;2023-02-12T10:22:16;111992.50;;;-145.11;51.48
63033;BME280;49121;38.932;-9.018;2023-02-12T10:24:26;111992.50;;;-145.11;50.76
63033;BME280;49121;38.932;-9.018;2023-02-12T10:26:34;111992.50;;;-145.11;50.93
63033;BME280;49121;38.932;-9.018;2023-02-12T10:28:40;111992.50;;;-145.11;50.07
63033;BME280;49121;38.932;-9.018;2023-02-12T10:32:58;111992.50;;;-145.11;49.01
63033;BME280;49121;38.932;-9.018;2023-02-12T10:35:00;111992.50;;;-145.11;48.67
63033;BME280;49121;38.932;-9.018;2023-02-12T10:39:39;111992.50;;;-145.11;49.09
63033;BME280;49121;38.932;-9.018;2023-02-12T10:43:48;111992.50;;;-145.11;49.71
63033;BME280;49121;38.932;-9.018;2023-02-12T10:45:49;111992.50;;;-145.11;50.51
63033;BME280;49121;38.932;-9.018;2023-02-12T10:48:08;111992.50;;;-145.11;51.07
63033;BME280;49121;38.932;-9.018;2023-02-12T10:54:31;111992.50;;;-145.11;50.56
63033;BME280;49121;38.932;-9.018;2023-02-12T10:56:35;111992.50;;;-145.11;50.09
63033;BME280;49121;38.932;-9.018;2023-02-12T10:58:57;111992.50;;;-145.11;50.63
63033;BME280;49121;38.932;-9.018;2023-02-12T11:01:00;111992.50;;;-145.11;50.77
63033;BME280;49121;38.932;-9.018;2023-02-12T11:05:23;111992.50;;;-145.11;50.78
63033;BME280;49121;38.932;-9.018;2023-02-12T11:07:26;111992.50;;;-145.11;50.47
63033;BME280;49121;38.932;-9.018;2023-02-12T11:09:30;111992.50;;;-145.11;50.67
63033;BME280;49121;38.932;-9.018;2023-02-12T11:11:37;111992.50;;;-145.11;50.38
63033;BME280;49121;38.932;-9.018;2023-02-12T11:13:58;111992.50;;;-145.11;49.33
63033;BME280;49121;38.932;-9.018;2023-02-12T11:16:00;111992.50;;;-145.11;49.26
63033;BME280;49121;38.932;-9.018;2023-02-12T11:18:06;111992.50;;;-145.11;49.12
63033;BME280;49121;38.932;-9.018;2023-02-12T11:20:36;111992.50;;;-145.11;49.14
63033;BME280;49121;38.932;-9.018;2023-02-12T11:22:48;111992.50;;;-145.11;48.77
63033;BME280;49121;38.932;-9.018;2023-02-12T11:24:59;111992.50;;;-145.11;49.04
63033;BME280;49121;38.932;-9.018;2023-02-12T11:29:21;111992.50;;;-145.11;48.13
63033;BME280;49121;38.932;-9.018;2023-02-12T11:31:28;111992.50;;;-145.11;48.38
63033;BME280;49121;38.932;-9.018;2023-02-12T11:33:36;111992.50;;;-145.11;48.43
63033;BME280;49121;38.932;-9.018;2023-02-12T11:35:47;111992.50;;;-145.11;48.43
63033;BME280;49121;38.932;-9.018;2023-02-12T11:40:30;111992.50;;;-145.11;47.91
63033;BME280;49121;38.932;-9.018;2023-02-12T11:42:36;111992.50;;;-145.11;47.10
63033;BME280;49121;38.932;-9.018;2023-02-12T11:44:39;111992.50;;;-145.11;47.19
63033;BME280;49121;38.932;-9.018;2023-02-12T11:46:50;111992.50;;;-145.11;47.45
63033;BME280;49121;38.932;-9.018;2023-02-12T11:48:55;111992.50;;;-145.11;46.93
63033;BME280;49121;38.932;-9.018;2023-02-12T11:50:58;111992.50;;;-145.11;46.91
63033;BME280;49121;38.932;-9.018;2023-02-12T11:53:03;111992.50;;;-145.11;46.88
63033;BME280;49121;38.932;-9.018;2023-02-12T11:55:23;111992.50;;;-145.11;47.79
63033;BME280;49121;38.932;-9.018;2023-02-12T11:57:47;111992.50;;;-145.11;48.04
63033;BME280;49121;38.932;-9.018;2023-02-12T12:04:13;111992.50;;;-145.11;46.30
63033;BME280;49121;38.932;-9.018;2023-02-12T12:06:24;111992.50;;;-145.11;46.07
63033;BME280;49121;38.932;-9.018;2023-02-12T12:08:41;111992.50;;;-145.11;46.33
63033;BME280;49121;38.932;-9.018;2023-02-12T12:10:53;111992.50;;;-145.11;46.54
63033;BME280;49121;38.932;-9.018;2023-02-12T12:13:22;111992.50;;;-145.11;45.70
63033;BME280;49121;38.932;-9.018;2023-02-12T12:15:30;111992.50;;;-145.11;44.96
63033;BME280;49121;38.932;-9.018;2023-02-12T12:17:59;111992.50;;;-145.11;45.49
63033;BME280;49121;38.932;-9.018;2023-02-12T12:20:26;111992.50;;;-145.11;46.04
63033;BME280;49121;38.932;-9.018;2023-02-12T12:22:38;111992.50;;;-145.11;45.49
63033;BME280;49121;38.932;-9.018;2023-02-12T12:24:56;111992.50;;;-145.11;45.91
63033;BME280;49121;38.932;-9.018;2023-02-12T12:27:07;111992.50;;;-145.11;46.25
63033;BME280;49121;38.932;-9.018;2023-02-12T12:29:56;111992.50;;;-145.11;46.27
63033;BME280;49121;38.932;-9.018;2023-02-12T12:32:20;111992.50;;;-145.11;47.24
63033;BME280;49121;38.932;-9.018;2023-02-12T12:34:23;111992.50;;;-145.11;47.89
63033;BME280;49121;38.932;-9.018;2023-02-12T13:10:59;111992.50;;;-145.11;44.50
63033;BME280;49121;38.932;-9.018;2023-02-12T13:17:40;111992.50;;;-145.11;46.38
63033;BME280;49121;38.932;-9.018;2023-02-12T13:22:12;111992.50;;;-145.11;46.03